createdAt,value
2023-05-09T00:00:20.965Z,20.00
2023-05-09T00:02:48.486Z,20.33
2023-05-09T00:05:15.827Z,19.55
2023-05-09T00:07:43.010Z,20.83
2023-05-09T00:10:10.300Z,20.38
2023-05-09T00:12:37.413Z,20.75
2023-05-09T00:15:08.072Z,21.27
2023-05-09T00:17:36.423Z,21.10
2023-05-09T00:20:05.252Z,21.25
2023-05-09T00:22:32.322Z,21.23
2023-05-09T00:24:59.403Z,21.27
2023-05-09T00:27:26.475Z,20.05
2023-05-09T00:29:53.513Z,19.88
2023-05-09T00:32:20.771Z,20.27
2023-05-09T00:34:47.788Z,21.00
2023-05-09T00:37:14.857Z,20.60
2023-05-09T00:39:41.869Z,21.77
2023-05-09T00:42:08.894Z,20.52
2023-05-09T00:44:35.990Z,20.95
2023-05-09T00:47:03.122Z,21.73
2023-05-09T00:49:30.944Z,20.20
2023-05-09T00:51:58.052Z,21.58
2023-05-09T00:54:25.076Z,21.33
2023-05-09T00:56:52.223Z,20.30
2023-05-09T00:59:19.364Z,20.70
2023-05-09T01:01:46.502Z,20.10
2023-05-09T01:04:13.975Z,19.58
2023-05-09T01:07:10.784Z,19.10
2023-05-09T01:09:57.510Z,20.02
2023-05-09T01:12:27.589Z,19.60
2023-05-09T01:14:54.638Z,19.73
2023-05-09T01:17:32.114Z,19.63
2023-05-09T01:20:11.094Z,19.95
2023-05-09T01:22:38.640Z,19.30
2023-05-09T01:25:15.106Z,20.33
2023-05-09T01:27:48.339Z,19.25
2023-05-09T01:30:15.708Z,20.70
2023-05-09T01:32:43.882Z,18.23
2023-05-09T01:35:12.088Z,19.20
2023-05-09T01:37:40.427Z,19.35
2023-05-09T01:40:08.241Z,20.35
2023-05-09T01:42:39.345Z,19.88
2023-05-09T01:45:06.806Z,20.13
2023-05-09T01:47:33.889Z,20.38
2023-05-09T01:50:01.943Z,21.35
2023-05-09T01:52:29.047Z,23.05
2023-05-09T01:54:56.231Z,22.05
2023-05-09T01:57:23.296Z,21.30
2023-05-09T01:59:50.835Z,21.35
2023-05-09T02:02:17.929Z,21.48
2023-05-09T02:04:45.054Z,21.33
2023-05-09T02:07:12.113Z,20.75
2023-05-09T02:09:39.220Z,21.20
2023-05-09T02:12:06.496Z,20.55
2023-05-09T02:14:33.565Z,20.05
2023-05-09T02:17:06.939Z,20.15
2023-05-09T02:19:52.808Z,19.10
2023-05-09T02:22:20.024Z,18.83
2023-05-09T02:24:47.091Z,19.33
2023-05-09T02:27:14.166Z,17.05
2023-05-09T02:29:43.572Z,16.27
2023-05-09T02:32:12.016Z,17.40
2023-05-09T02:34:39.212Z,17.08
2023-05-09T02:37:06.410Z,16.52
2023-05-09T02:39:33.577Z,16.83
2023-05-09T02:42:07.463Z,16.65
2023-05-09T02:44:34.698Z,16.08
2023-05-09T02:47:02.309Z,16.25
2023-05-09T02:49:32.460Z,16.80
2023-05-09T02:54:26.884Z,16.08
2023-05-09T02:56:54.121Z,18.08
2023-05-09T02:59:21.264Z,18.48
2023-05-09T03:01:48.460Z,18.80
2023-05-09T03:04:16.553Z,18.60
2023-05-09T03:06:43.583Z,18.42
2023-05-09T03:09:10.673Z,18.85
2023-05-09T03:11:37.769Z,19.83
2023-05-09T03:14:05.134Z,18.35
2023-05-09T03:16:32.253Z,17.40
2023-05-09T03:18:59.254Z,18.90
2023-05-09T03:21:26.298Z,18.00
2023-05-09T03:23:53.399Z,18.10
2023-05-09T03:26:20.829Z,18.63
2023-05-09T03:28:48.881Z,19.00
2023-05-09T03:31:16.203Z,19.77
2023-05-09T03:33:43.282Z,21.48
2023-05-09T03:36:10.396Z,21.30
2023-05-09T03:38:37.433Z,21.70
2023-05-09T03:41:04.568Z,21.40
2023-05-09T03:43:31.652Z,21.00
2023-05-09T03:45:58.846Z,24.05
2023-05-09T03:48:25.919Z,24.45
2023-05-09T03:50:52.987Z,22.58
2023-05-09T03:53:20.599Z,22.63
2023-05-09T03:55:47.737Z,21.60
2023-05-09T03:58:14.855Z,21.35
2023-05-09T04:00:42.007Z,21.30
2023-05-09T04:03:09.169Z,20.10
2023-05-09T04:05:36.392Z,20.45
2023-05-09T04:08:04.066Z,22.17
2023-05-09T04:10:31.945Z,24.38
2023-05-09T04:12:59.275Z,22.40
2023-05-09T04:15:26.853Z,25.75
2023-05-09T04:17:53.923Z,27.95
2023-05-09T04:20:21.005Z,27.85
2023-05-09T04:22:48.013Z,28.63
2023-05-09T04:25:16.094Z,30.17
2023-05-09T04:27:43.325Z,29.98
2023-05-09T04:30:10.632Z,29.98
2023-05-09T04:32:38.800Z,26.23
2023-05-09T04:35:08.137Z,24.08
2023-05-09T04:37:35.257Z,22.80
2023-05-09T04:40:02.798Z,21.88
2023-05-09T04:42:29.819Z,22.83
2023-05-09T04:44:57.346Z,21.10
2023-05-09T04:47:24.429Z,22.30
2023-05-09T04:49:51.553Z,22.65
2023-05-09T04:52:18.600Z,20.25
2023-05-09T04:54:45.679Z,21.40
2023-05-09T04:57:18.045Z,21.50
2023-05-09T04:59:46.039Z,21.20
2023-05-09T05:02:13.165Z,22.35
2023-05-09T05:04:40.329Z,22.77
2023-05-09T05:07:07.430Z,21.77
2023-05-09T05:09:34.503Z,22.50
2023-05-09T05:12:03.656Z,21.48
2023-05-09T05:14:31.996Z,19.58
2023-05-09T05:16:59.010Z,20.83
2023-05-09T05:19:26.036Z,20.38
2023-05-09T05:21:53.095Z,19.50
2023-05-09T05:24:20.210Z,18.23
2023-05-09T05:26:47.253Z,16.73
2023-05-09T05:29:14.439Z,16.63
2023-05-09T05:31:41.607Z,18.15
2023-05-09T05:34:08.695Z,17.38
2023-05-09T05:36:35.829Z,17.33
2023-05-09T05:39:02.892Z,18.33
2023-05-09T05:41:29.932Z,18.15
2023-05-09T05:43:57.105Z,17.83
2023-05-09T05:46:24.277Z,17.02
2023-05-09T05:48:51.438Z,14.65
2023-05-09T05:51:18.525Z,15.73
2023-05-09T05:53:45.571Z,15.48
2023-05-09T05:56:12.637Z,15.07
2023-05-09T05:58:39.700Z,13.70
2023-05-09T06:01:06.712Z,13.10
2023-05-09T06:03:33.820Z,11.57
2023-05-09T06:06:00.969Z,11.40
2023-05-09T06:08:28.007Z,10.77
2023-05-09T06:10:55.177Z,10.65
2023-05-09T06:13:22.320Z,10.73
2023-05-09T06:15:49.423Z,10.88
2023-05-09T06:18:16.492Z,9.98
2023-05-09T06:20:43.502Z,9.70
2023-05-09T06:23:10.874Z,9.35
2023-05-09T06:25:37.919Z,9.43
2023-05-09T06:28:05.156Z,9.40
2023-05-09T06:30:32.184Z,9.25
2023-05-09T06:33:00.061Z,9.13
2023-05-09T06:35:27.283Z,8.88
2023-05-09T06:37:54.401Z,8.68
2023-05-09T06:40:21.593Z,9.63
2023-05-09T06:42:49.075Z,8.68
2023-05-09T06:45:16.419Z,9.32
2023-05-09T06:47:43.700Z,9.27
2023-05-09T06:50:10.816Z,9.70
2023-05-09T06:52:37.856Z,9.98
2023-05-09T06:55:05.228Z,9.93
2023-05-09T06:57:32.386Z,10.35
2023-05-09T06:59:59.482Z,10.07
2023-05-09T07:02:26.554Z,10.90
2023-05-09T07:04:53.883Z,10.27
2023-05-09T07:07:20.966Z,10.32
2023-05-09T07:09:49.323Z,10.50
2023-05-09T07:12:19.950Z,11.25
2023-05-09T07:14:46.993Z,11.30
2023-05-09T07:17:22.717Z,11.38
2023-05-09T07:19:51.026Z,11.38
2023-05-09T07:22:18.143Z,11.20
2023-05-09T07:24:46.364Z,11.77
2023-05-09T07:27:13.532Z,11.18
2023-05-09T07:29:40.599Z,10.70
2023-05-09T07:32:07.814Z,10.60
2023-05-09T07:34:35.072Z,10.30
2023-05-09T07:37:02.579Z,10.40
2023-05-09T07:39:29.723Z,10.07
2023-05-09T07:41:56.805Z,9.27
2023-05-09T07:44:24.215Z,10.77
2023-05-09T07:46:51.397Z,11.35
2023-05-09T07:49:18.513Z,10.60
2023-05-09T07:51:45.575Z,10.40
2023-05-09T07:54:12.730Z,10.20
2023-05-09T07:56:39.844Z,10.32
2023-05-09T07:59:06.975Z,9.80
2023-05-09T08:01:34.057Z,10.90
2023-05-09T08:04:01.230Z,11.02
2023-05-09T08:06:28.408Z,11.10
2023-05-09T08:08:55.433Z,12.32
2023-05-09T08:11:22.720Z,11.30
2023-05-09T08:13:50.333Z,10.70
2023-05-09T08:16:17.617Z,11.10
2023-05-09T08:18:44.852Z,11.73
2023-05-09T08:21:11.988Z,11.10
2023-05-09T08:23:40.508Z,10.50
2023-05-09T08:26:07.633Z,11.55
2023-05-09T08:28:34.732Z,10.85
2023-05-09T08:31:01.879Z,10.93
2023-05-09T08:33:28.971Z,11.70
2023-05-09T08:35:56.448Z,11.73
2023-05-09T08:38:24.349Z,12.25
2023-05-09T08:40:51.593Z,12.05
2023-05-09T08:43:19.225Z,11.68
2023-05-09T08:45:51.930Z,11.55
2023-05-09T08:48:20.131Z,12.80
2023-05-09T08:50:47.161Z,12.50
2023-05-09T08:53:14.434Z,12.38
2023-05-09T08:55:41.523Z,13.27
2023-05-09T08:58:09.183Z,13.10
2023-05-09T09:00:38.719Z,12.80
2023-05-09T09:03:06.069Z,13.18
2023-05-09T09:05:41.408Z,12.68
2023-05-09T09:08:09.998Z,13.23
2023-05-09T09:10:37.127Z,12.35
2023-05-09T09:13:04.969Z,13.05
2023-05-09T09:15:35.096Z,13.85
2023-05-09T09:18:07.296Z,13.80
2023-05-09T09:20:34.794Z,13.55
2023-05-09T09:23:02.024Z,13.40
2023-05-09T09:25:29.137Z,12.15
2023-05-09T09:27:56.273Z,12.60
2023-05-09T09:30:24.884Z,12.60
2023-05-09T09:32:52.073Z,12.88
2023-05-09T09:35:20.135Z,13.25
2023-05-09T09:37:47.267Z,12.90
2023-05-09T09:40:14.708Z,13.15
2023-05-09T09:42:43.073Z,13.68
2023-05-09T09:45:13.768Z,13.48
2023-05-09T09:47:41.177Z,13.13
2023-05-09T09:50:18.202Z,13.70
2023-05-09T09:52:49.568Z,14.05
2023-05-09T09:55:16.876Z,14.15
2023-05-09T09:57:45.783Z,14.13
2023-05-09T10:00:13.695Z,15.25
2023-05-09T10:02:48.319Z,14.52
2023-05-09T10:05:21.965Z,13.63
2023-05-09T10:07:53.268Z,15.05
2023-05-09T10:10:20.560Z,14.38
2023-05-09T10:12:47.690Z,13.48
2023-05-09T10:15:15.547Z,13.25
2023-05-09T10:17:43.113Z,14.27
2023-05-09T10:20:10.583Z,13.70
2023-05-09T10:22:37.794Z,13.45
2023-05-09T10:25:05.645Z,13.18
2023-05-09T10:27:33.943Z,13.15
2023-05-09T10:30:00.998Z,11.82
2023-05-09T10:32:34.235Z,12.13
2023-05-09T10:35:02.822Z,12.98
2023-05-09T10:37:31.533Z,12.88
2023-05-09T10:39:59.895Z,12.47
2023-05-09T10:42:28.305Z,13.30
2023-05-09T10:44:55.341Z,13.70
2023-05-09T10:47:22.407Z,12.52
2023-05-09T10:49:49.822Z,12.88
2023-05-09T10:52:18.839Z,13.07
2023-05-09T10:54:45.904Z,11.90
2023-05-09T10:57:12.991Z,12.02
2023-05-09T10:59:41.424Z,11.48
2023-05-09T11:02:19.749Z,13.05
2023-05-09T11:04:46.824Z,12.70
2023-05-09T11:07:26.940Z,13.18
2023-05-09T11:09:54.413Z,13.23
2023-05-09T11:12:21.884Z,13.65
2023-05-09T11:14:49.422Z,13.23
2023-05-09T11:17:22.644Z,13.05
2023-05-09T11:19:49.860Z,14.00
2023-05-09T11:22:27.758Z,12.50
2023-05-09T11:25:08.514Z,11.90
2023-05-09T11:27:49.793Z,12.50
2023-05-09T11:30:17.698Z,12.15
2023-05-09T11:32:45.963Z,11.77
2023-05-09T11:35:20.744Z,10.80
2023-05-09T11:37:52.797Z,10.68
2023-05-09T11:40:20.379Z,11.00
2023-05-09T11:42:48.197Z,10.75
2023-05-09T11:45:15.641Z,10.40
2023-05-09T11:47:42.895Z,10.68
2023-05-09T11:50:10.745Z,11.20
2023-05-09T11:52:41.349Z,10.65
2023-05-09T11:55:11.474Z,10.00
2023-05-09T11:57:42.798Z,10.20
2023-05-09T12:00:10.451Z,8.98
2023-05-09T12:02:38.089Z,8.80
2023-05-09T12:05:12.033Z,8.82
2023-05-09T12:07:42.219Z,8.50
2023-05-09T12:10:09.802Z,7.35
2023-05-09T12:12:37.332Z,8.05
2023-05-09T12:15:07.987Z,8.23
2023-05-09T12:17:35.507Z,7.57
2023-05-09T12:20:04.684Z,7.68
2023-05-09T12:22:32.098Z,9.15
2023-05-09T12:25:01.266Z,7.97
2023-05-09T12:27:29.060Z,8.85
2023-05-09T12:29:56.219Z,8.57
2023-05-09T12:32:23.379Z,7.70
2023-05-09T12:34:52.065Z,10.55
2023-05-09T12:37:19.612Z,8.70
2023-05-09T12:40:00.734Z,10.38
2023-05-09T12:42:29.022Z,9.27
2023-05-09T12:44:56.595Z,10.88
2023-05-09T12:47:23.683Z,10.05
2023-05-09T12:49:50.966Z,9.82
2023-05-09T12:52:21.598Z,10.73
2023-05-09T12:54:49.023Z,10.80
2023-05-09T12:57:28.805Z,9.75
2023-05-09T13:00:00.521Z,9.18
2023-05-09T13:02:27.827Z,8.45
2023-05-09T13:05:11.113Z,8.13
2023-05-09T13:07:41.991Z,9.43
2023-05-09T13:10:15.596Z,8.50
2023-05-09T13:12:48.051Z,7.45
2023-05-09T13:15:16.879Z,9.05
2023-05-09T13:17:44.345Z,8.65
2023-05-09T13:20:11.540Z,9.13
2023-05-09T13:22:38.628Z,8.68
2023-05-09T13:25:06.032Z,9.45
2023-05-09T13:27:33.450Z,8.32
2023-05-09T13:30:00.661Z,8.65
2023-05-09T13:32:27.763Z,7.95
2023-05-09T13:34:54.840Z,6.93
2023-05-09T13:37:22.453Z,7.05
2023-05-09T13:39:49.605Z,7.28
2023-05-09T13:42:18.956Z,6.75
2023-05-09T13:44:46.317Z,6.47
2023-05-09T13:47:13.431Z,6.70
2023-05-09T13:49:40.520Z,6.68
2023-05-09T13:52:08.248Z,6.70
2023-05-09T13:54:35.431Z,6.97
2023-05-09T13:57:03.652Z,6.43
2023-05-09T13:59:31.514Z,5.97
2023-05-09T14:01:59.938Z,7.25
2023-05-09T14:04:31.866Z,6.80
2023-05-09T14:06:58.954Z,5.78
2023-05-09T14:09:26.319Z,5.65
2023-05-09T14:11:53.551Z,5.15
2023-05-09T14:14:21.040Z,5.70
2023-05-09T14:16:48.167Z,6.55
2023-05-09T14:19:15.434Z,6.72
2023-05-09T14:21:42.988Z,7.60
2023-05-09T14:24:10.440Z,6.70
2023-05-09T14:26:37.518Z,5.85
2023-05-09T14:29:04.736Z,6.38
2023-05-09T14:31:32.267Z,5.95
2023-05-09T14:34:00.297Z,6.35
2023-05-09T14:36:27.780Z,6.40
2023-05-09T14:38:55.144Z,5.63
2023-05-09T14:41:22.213Z,5.80
2023-05-09T14:43:49.512Z,6.07
2023-05-09T14:46:16.672Z,6.35
2023-05-09T14:48:43.788Z,5.97
2023-05-09T14:51:11.777Z,6.68
2023-05-09T14:53:41.991Z,6.50
2023-05-09T14:56:11.043Z,6.38
2023-05-09T14:58:38.087Z,6.95
2023-05-09T15:01:05.156Z,6.63
2023-05-09T15:03:32.546Z,6.47
2023-05-09T15:05:59.704Z,6.78
2023-05-09T15:08:27.049Z,8.45
2023-05-09T15:10:54.362Z,7.97
2023-05-09T15:13:21.621Z,7.03
2023-05-09T15:15:48.782Z,7.35
2023-05-09T15:18:18.299Z,6.85
2023-05-09T15:20:45.379Z,6.63
2023-05-09T15:23:13.175Z,8.27
2023-05-09T15:25:43.190Z,10.25
2023-05-09T15:28:10.882Z,8.60
2023-05-09T15:30:41.162Z,9.13
2023-05-09T15:33:08.333Z,7.40
2023-05-09T15:35:35.494Z,8.02
2023-05-09T15:38:02.953Z,7.57
2023-05-09T15:40:30.022Z,7.85
2023-05-09T15:42:57.553Z,7.72
2023-05-09T15:45:24.664Z,8.02
2023-05-09T15:47:51.840Z,7.10
2023-05-09T15:50:19.039Z,6.97
2023-05-09T15:52:46.225Z,7.18
2023-05-09T15:55:13.379Z,6.95
2023-05-09T15:57:40.615Z,7.50
2023-05-09T16:00:07.972Z,9.50
2023-05-09T16:02:35.291Z,8.77
2023-05-09T16:05:02.356Z,9.73
2023-05-09T16:07:29.357Z,7.85
2023-05-09T16:09:56.430Z,8.85
2023-05-09T16:12:24.258Z,10.40
2023-05-09T16:14:51.310Z,10.98
2023-05-09T16:17:18.354Z,10.23
2023-05-09T16:19:45.500Z,9.82
2023-05-09T16:22:13.315Z,9.65
2023-05-09T16:24:40.372Z,11.10
2023-05-09T16:27:07.473Z,13.52
2023-05-09T16:29:34.615Z,9.90
2023-05-09T16:32:01.672Z,9.52
2023-05-09T16:34:29.179Z,8.93
2023-05-09T16:36:56.246Z,9.20
2023-05-09T16:39:23.802Z,9.48
2023-05-09T16:41:50.906Z,9.80
2023-05-09T16:44:17.971Z,9.38
2023-05-09T16:46:45.133Z,9.20
2023-05-09T16:49:14.857Z,8.82
2023-05-09T16:51:42.218Z,8.40
2023-05-09T16:54:09.263Z,7.50
2023-05-09T16:56:36.437Z,7.50
2023-05-09T16:59:03.877Z,12.10
2023-05-09T17:01:31.060Z,7.72
2023-05-09T17:03:58.229Z,8.02
2023-05-09T17:06:26.160Z,8.00
2023-05-09T17:08:53.237Z,8.00
2023-05-09T17:11:21.550Z,8.90
2023-05-09T17:13:48.581Z,9.20
2023-05-09T17:16:15.727Z,8.77
2023-05-09T17:18:46.067Z,8.82
2023-05-09T17:23:40.156Z,10.20
2023-05-09T17:26:07.248Z,10.80
2023-05-09T17:28:34.329Z,10.45
2023-05-09T17:31:01.681Z,10.25
2023-05-09T17:33:28.762Z,12.00
2023-05-09T17:35:55.887Z,10.60
2023-05-09T17:38:22.986Z,9.52
2023-05-09T17:40:50.049Z,9.90
2023-05-09T17:43:17.123Z,9.88
2023-05-09T17:45:46.217Z,10.82
2023-05-09T17:48:13.598Z,9.90
2023-05-09T17:50:41.061Z,10.40
2023-05-09T17:53:09.358Z,9.70
2023-05-09T17:55:36.585Z,10.10
2023-05-09T17:58:03.659Z,10.88
2023-05-09T18:00:30.755Z,11.52
2023-05-09T18:03:01.084Z,10.93
2023-05-09T18:07:56.562Z,10.63
2023-05-09T18:10:23.602Z,10.27
2023-05-09T18:12:50.852Z,9.20
2023-05-09T18:15:18.011Z,10.52
2023-05-09T18:17:48.180Z,10.85
2023-05-09T18:20:15.605Z,10.98
2023-05-09T18:22:42.769Z,10.40
2023-05-09T18:25:10.032Z,12.30
2023-05-09T18:27:37.120Z,12.27
2023-05-09T18:30:04.843Z,12.32
2023-05-09T18:32:32.277Z,10.90
2023-05-09T18:34:59.390Z,10.65
2023-05-09T18:37:26.854Z,11.60
2023-05-09T18:39:53.993Z,11.90
2023-05-09T18:42:21.064Z,12.50
2023-05-09T18:44:48.277Z,12.32
2023-05-09T18:47:15.745Z,12.95
2023-05-09T18:49:43.016Z,14.02
2023-05-09T18:52:10.215Z,13.68
2023-05-09T18:54:38.098Z,12.88
2023-05-09T18:57:05.181Z,13.20
2023-05-09T18:59:32.249Z,13.00
2023-05-09T19:01:59.316Z,13.05
2023-05-09T19:04:26.779Z,14.43
2023-05-09T19:06:53.951Z,14.00
2023-05-09T19:09:21.277Z,14.40
2023-05-09T19:11:48.413Z,14.85
2023-05-09T19:14:15.573Z,14.52
2023-05-09T19:16:42.711Z,15.43
2023-05-09T19:19:09.822Z,15.20
2023-05-09T19:21:37.143Z,14.63
2023-05-09T19:24:06.168Z,15.63
2023-05-09T19:26:33.236Z,15.45
2023-05-09T19:29:00.738Z,15.75
2023-05-09T19:31:27.957Z,17.63
2023-05-09T19:33:55.095Z,16.13
2023-05-09T19:36:22.198Z,16.45
2023-05-09T19:38:49.201Z,17.83
2023-05-09T19:41:16.274Z,17.13
2023-05-09T19:43:43.314Z,16.92
2023-05-09T19:46:10.547Z,16.75
2023-05-09T19:48:37.665Z,17.38
2023-05-09T19:51:04.872Z,16.30
2023-05-09T19:53:31.932Z,16.50
2023-05-09T19:55:58.965Z,18.00
2023-05-09T19:58:27.537Z,17.58
2023-05-09T20:00:54.700Z,16.95
2023-05-09T20:03:21.839Z,16.85
2023-05-09T20:05:48.949Z,17.63
2023-05-09T20:08:16.042Z,17.45
2023-05-09T20:10:43.415Z,16.08
2023-05-09T20:13:10.664Z,16.40
2023-05-09T20:15:37.835Z,15.48
2023-05-09T20:18:07.072Z,15.52
2023-05-09T20:20:34.614Z,15.88
2023-05-09T20:23:02.113Z,16.17
2023-05-09T20:25:29.287Z,15.75
2023-05-09T20:27:56.367Z,16.17
2023-05-09T20:30:23.468Z,15.05
2023-05-09T20:32:50.779Z,15.63
2023-05-09T20:35:17.867Z,13.45
2023-05-09T20:37:44.921Z,12.40
2023-05-09T20:40:13.856Z,12.20
2023-05-09T20:42:41.133Z,12.35
2023-05-09T20:45:08.430Z,13.30
2023-05-09T20:47:35.602Z,12.63
2023-05-09T20:50:02.841Z,13.18
2023-05-09T20:52:29.944Z,13.23
2023-05-09T20:54:57.073Z,12.88
2023-05-09T20:57:24.223Z,13.10
2023-05-09T20:59:51.305Z,13.95
2023-05-09T21:02:18.396Z,12.70
2023-05-09T21:04:45.457Z,12.55
2023-05-09T21:07:12.483Z,13.55
2023-05-09T21:09:39.640Z,12.68
2023-05-09T21:12:07.796Z,12.30
2023-05-09T21:14:36.253Z,12.02
2023-05-09T21:17:03.931Z,12.48
2023-05-09T21:19:31.066Z,12.60
2023-05-09T21:21:58.849Z,12.30
2023-05-09T21:24:26.018Z,12.95
2023-05-09T21:26:53.459Z,12.32
2023-05-09T21:29:20.752Z,13.43
2023-05-09T21:31:47.760Z,13.63
2023-05-09T21:34:14.752Z,13.52
2023-05-09T21:36:41.776Z,13.48
2023-05-09T21:39:09.266Z,13.95
2023-05-09T21:41:36.702Z,14.55
2023-05-09T21:44:03.944Z,15.45
2023-05-09T21:46:34.156Z,15.63
2023-05-09T21:49:01.427Z,15.02
2023-05-09T21:51:28.727Z,16.27
2023-05-09T21:53:55.943Z,16.25
2023-05-09T21:56:23.181Z,16.63
2023-05-09T21:58:50.232Z,17.15
2023-05-09T22:01:17.459Z,17.42
2023-05-09T22:03:44.592Z,17.15
2023-05-09T22:06:12.072Z,17.73
2023-05-09T22:08:39.120Z,17.00
2023-05-09T22:11:06.225Z,16.63
2023-05-09T22:13:33.386Z,17.02
2023-05-09T22:16:00.549Z,17.42
2023-05-09T22:18:27.733Z,15.95
2023-05-09T22:20:54.813Z,16.08
2023-05-09T22:23:21.869Z,15.32
2023-05-09T22:25:48.948Z,16.23
2023-05-09T22:28:15.976Z,14.88
2023-05-09T22:30:43.038Z,15.85
2023-05-09T22:33:10.102Z,14.73
2023-05-09T22:35:37.193Z,14.18
2023-05-09T22:38:04.312Z,14.82
2023-05-09T22:40:31.402Z,14.88
2023-05-09T22:42:58.473Z,13.73
2023-05-09T22:45:25.740Z,13.68
2023-05-09T22:47:52.821Z,13.20
2023-05-09T22:50:19.841Z,13.95
2023-05-09T22:52:46.939Z,13.40
2023-05-09T22:55:14.166Z,13.68
2023-05-09T22:57:41.552Z,14.60
2023-05-09T23:00:09.661Z,14.43
2023-05-09T23:02:37.242Z,14.75
2023-05-09T23:05:04.482Z,14.60
2023-05-09T23:07:31.548Z,13.68
2023-05-09T23:09:59.225Z,13.80
2023-05-09T23:12:26.229Z,14.70
2023-05-09T23:14:53.295Z,14.32
2023-05-09T23:17:20.363Z,13.68
2023-05-09T23:19:47.387Z,14.63
2023-05-09T23:22:14.405Z,13.55
2023-05-09T23:24:41.604Z,13.52
2023-05-09T23:27:09.408Z,14.35
2023-05-09T23:29:36.498Z,13.70
2023-05-09T23:32:03.633Z,13.82
2023-05-09T23:34:31.031Z,14.80
2023-05-09T23:36:58.028Z,14.20
2023-05-09T23:39:25.084Z,14.48
2023-05-09T23:41:52.133Z,14.23
2023-05-09T23:44:19.287Z,13.80
2023-05-09T23:46:46.361Z,13.38
2023-05-09T23:49:14.580Z,13.95
2023-05-09T23:51:41.691Z,14.48
2023-05-09T23:54:08.802Z,14.30
2023-05-09T23:56:35.833Z,14.38
2023-05-09T23:59:02.873Z,13.55
